Latest Weather Observations for Christmas Creek

IDW60801

Issued at 9:33 am WST Tuesday 22 September 2020 (issued every 10 minutes, with the page automatically refreshed every 10 minutes)

About weather observations | Map of weather stations | Latest weather observations for WA | Other Formats
Station Details ID: 505049 Name: CHRISTMAS CREEK Lat: -22.36 Lon: 119.65 Height: 437.21 m
Data from the previous 72 hours. | See also: Recent months for locations in Western Australia
Date/Time
WST
Temp
°C
App
Temp
°C
Dew
Point
°C
Rel
Hum
%
Delta-T
°C
Wind Press
QNH
hPa
Press
MSL
hPa
Rain since
9am
mm
Dir  Spd
km/h
Gust
km/h
Spd
kts
Gust
kts
22/09:30am 22.8 15.2 -15.1 7 13.1 ESE 22 32 12 17 1020.6 1018.8 0.0
22/09:00am 21.4 14.3 -13.3 9 12.2 SE 20 32 11 17 1020.7 1018.9 0.0
22/08:30am 19.6 12.2 -12.3 10 11.2 SE 22 28 12 15 1020.7 1018.9 0.0
22/08:00am 17.8 11.4 -12.1 12 10.3 SE 17 24 9 13 1020.7 1018.9 0.0
22/07:30am 15.9 9.9 -12.0 13 9.4 SE 15 20 8 11 1020.4 1018.7 0.0
22/07:00am 14.2 8.2 -11.7 15 8.6 SE 15 20 8 11 1020.1 1018.4 0.0
22/06:30am 12.3 7.5 -10.7 19 7.6 SSE 9 15 5 8 1019.6 1017.8 0.0
22/06:00am 11.2 6.4 -11.1 20 7.2 SSE 9 11 5 6 1019.2 1017.4 0.0
22/05:30am 11.4 7.0 -10.6 20 7.2 SSE 7 7 4 4 1018.8 1017.0 0.0
22/05:00am 11.8 7.5 -11.4 18 7.5 SSE 6 7 3 4 1018.5 1016.7 0.0
22/04:30am 12.7 7.9 -10.8 18 7.8 SE 9 11 5 6 1018.1 1016.3 0.0
22/04:00am 12.9 8.4 -11.5 17 8.0 SE 7 9 4 5 1017.8 1016.0 0.0
22/03:30am 13.6 8.7 -12.1 15 8.4 SE 9 11 5 6 1017.6 1015.8 0.0
22/03:00am 13.2 8.3 -11.3 17 8.1 SSE 9 13 5 7 1017.7 1015.9 0.0
22/02:30am 12.7 8.3 -10.8 18 7.8 S 7 9 4 5 1017.7 1015.9 0.0
22/02:00am 14.3 9.8 -11.4 16 8.6 SSE 7 9 4 5 1017.7 1015.9 0.0
22/01:30am 15.3 10.8 -11.7 14 9.1 SSE 7 9 4 5 1017.7 1015.9 0.0
22/01:00am 16.3 11.8 -12.0 13 9.6 SE 7 9 4 5 1017.7 1015.9 0.0
22/12:30am 16.5 11.6 -12.0 13 9.7 SE 9 9 5 5 1017.9 1016.1 0.0
22/12:00am 17.7 13.2 -12.3 12 10.3 SE 7 9 4 5 1017.9 1016.1 0.0
 
Date/Time
WST
Temp
°C
App
Temp
°C
Dew
Point
°C
Rel
Hum
%
Delta-T
°C
Wind Press
QNH
hPa
Press
MSL
hPa
Rain since
9am
mm
Dir  Spd
km/h
Gust
km/h
Spd
kts
Gust
kts
21/11:30pm 18.6 14.0 -12.9 10 10.8 SE 7 11 4 6 1018.1 1016.3 0.0
21/11:00pm 19.0 14.4 -12.9 10 11.0 SE 7 11 4 6 1018.1 1016.3 0.0
21/10:30pm 19.8 14.8 -13.0 10 11.4 SE 9 13 5 7 1018.2 1016.4 0.0
21/10:00pm 20.8 16.2 -13.1 9 11.9 ESE 7 11 4 6 1018.2 1016.4 0.0
21/09:30pm 21.4 16.4 -13.1 9 12.2 E 9 13 5 7 1018.2 1016.4 0.0
21/09:00pm 21.1 14.6 -13.5 9 12.1 SSE 17 20 9 11 1017.9 1016.1 0.0
21/08:30pm 21.1 16.5 -13.5 9 12.1 ESE 7 9 4 5 1017.8 1016.0 0.0
21/08:00pm 22.2 17.2 -14.0 8 12.7 ESE 9 13 5 7 1017.6 1015.8 0.0
21/07:30pm 22.7 17.7 -13.5 8 12.9 SE 9 11 5 6 1017.6 1015.8 0.0
21/07:00pm 23.6 18.6 -13.8 7 13.4 SE 9 13 5 7 1017.2 1015.4 0.0
21/06:30pm 24.4 19.7 -14.6 6 13.9 SSE 7 9 4 5 1016.9 1015.1 0.0
21/06:00pm 25.5 20.4 -15.9 5 14.6 SSE 9 15 5 8 1016.6 1014.8 0.0
21/05:30pm 26.3 20.8 -15.7 5 15.0 SSE 11 22 6 12 1016.2 1014.4 0.0
21/05:00pm 27.0 21.1 -16.0 5 15.4 SSE 13 20 7 11 1015.9 1014.0 0.0
21/04:30pm 26.9 22.1 -16.6 5 15.4 S 7 17 4 9 1015.7 1013.8 0.0
21/04:00pm 27.3 21.4 -16.4 5 15.6 S 13 28 7 15 1015.7 1013.8 0.0
21/03:30pm 27.3 20.6 -16.4 5 15.6 S 17 24 9 13 1015.7 1013.8 0.0
21/03:00pm 27.6 21.3 -16.9 4 15.8 SSE 15 26 8 14 1015.8 1013.9 0.0
21/02:30pm 27.3 21.3 -17.6 4 15.7 S 13 24 7 13 1015.9 1014.0 0.0
21/02:00pm 26.0 19.4 -15.2 5 14.8 SE 17 28 9 15 1016.2 1014.4 0.0
21/01:30pm 26.1 19.5 -14.7 6 14.8 SSE 17 26 9 14 1016.7 1014.9 0.0
21/01:00pm 25.5 18.9 -14.9 6 14.5 SE 17 26 9 14 1017.2 1015.4 0.0
21/12:30pm 24.4 17.9 -13.7 7 13.8 SSE 17 28 9 15 1017.7 1015.9 0.0
21/12:00pm 24.6 18.1 -13.7 7 13.9 SE 17 32 9 17 1018.1 1016.3 0.0
21/11:30am 23.7 16.7 -11.7 8 13.2 ESE 20 37 11 20 1018.7 1016.9 0.0
21/11:00am 22.0 14.3 -10.8 10 12.2 SE 24 41 13 22 1019.1 1017.3 0.0
21/10:30am 21.7 14.4 -10.5 10 12.0 SE 22 33 12 18 1019.5 1017.7 0.0
21/10:00am 20.8 12.8 -9.5 12 11.4 SE 26 37 14 20 1019.9 1018.1 0.0
21/09:30am 20.2 11.9 -8.8 13 11.0 SE 28 39 15 21 1020.0 1018.2 0.0
21/09:00am 19.1 10.1 -7.9 15 10.3 SE 32 41 17 22 1020.2 1018.5 0.0
21/08:30am 18.7 10.9 -7.3 16 10.0 SE 26 39 14 21 1020.3 1018.6 0.0
21/08:00am 17.5 9.3 -7.8 17 9.5 SE 28 39 15 21 1020.0 1018.2 0.0
21/07:30am 16.4 8.8 -9.7 16 9.3 SSE 24 32 13 17 1019.8 1018.0 0.0
21/07:00am 15.4 8.7 -10.1 16 8.9 SSE 19 26 10 14 1019.4 1017.6 0.0
21/06:30am 14.3 8.8 -10.1 17 8.4 SSE 13 17 7 9 1019.0 1017.2 0.0
21/06:00am 13.9 8.7 -10.6 17 8.3 SSE 11 17 6 9 1018.7 1016.9 0.0
21/05:30am 14.1 8.5 -10.7 17 8.4 SSE 13 19 7 10 1018.3 1016.5 0.0
21/05:00am 14.3 9.1 -11.4 16 8.6 SSE 11 17 6 9 1017.8 1016.0 0.0
21/04:30am 14.7 9.4 -11.5 15 8.8 SSE 11 15 6 8 1017.5 1015.7 0.0
21/04:00am 15.4 9.3 -12.1 14 9.2 SSE 15 20 8 11 1017.2 1015.4 0.0
21/03:30am 16.2 9.3 -13.1 12 9.7 SSE 19 24 10 13 1017.1 1015.3 0.0
21/03:00am 16.5 9.9 -14.4 11 10.0 SSE 17 24 9 13 1017.0 1015.2 0.0
21/02:30am 16.5 10.3 -14.4 11 10.0 SSE 15 20 8 11 1016.9 1015.1 0.0
21/02:00am 16.8 10.6 -14.0 11 10.1 S 15 20 8 11 1016.8 1015.0 0.0
21/01:30am 17.6 11.0 -15.2 9 10.6 S 17 24 9 13 1016.7 1014.9 0.0
21/01:00am 17.7 11.1 -15.7 9 10.7 SSE 17 24 9 13 1016.8 1015.0 0.0
21/12:30am 18.4 11.7 -16.4 8 11.1 SSE 17 22 9 12 1017.1 1015.3 0.0
21/12:00am 19.2 13.0 -15.6 8 11.4 SSE 15 22 8 12 1017.2 1015.4 0.0
 
Date/Time
WST
Temp
°C
App
Temp
°C
Dew
Point
°C
Rel
Hum
%
Delta-T
°C
Wind Press
QNH
hPa
Press
MSL
hPa
Rain since
9am
mm
Dir  Spd
km/h
Gust
km/h
Spd
kts
Gust
kts
20/11:30pm 19.8 12.7 -16.7 7 11.8 SSE 19 26 10 14 1017.1 1015.3 0.0
20/11:00pm 19.6 13.6 -17.8 7 11.8 SSE 13 20 7 11 1017.2 1015.4 0.0
20/10:30pm 19.9 14.0 -17.3 7 11.9 SSE 13 19 7 10 1017.2 1015.4 0.0
20/10:00pm 20.1 14.7 -14.3 8 11.7 SSE 11 15 6 8 1017.2 1015.4 0.0
20/09:30pm 21.2 15.3 -16.9 6 12.5 S 13 17 7 9 1017.2 1015.4 0.0
20/09:00pm 21.9 16.4 -15.4 7 12.7 S 11 15 6 8 1017.1 1015.3 0.0
20/08:30pm 22.5 16.6 -15.3 7 13.0 S 13 17 7 9 1016.8 1015.0 0.0
20/08:00pm 23.2 17.4 -14.8 7 13.3 S 13 17 7 9 1016.3 1014.5 0.0
20/07:30pm 24.3 18.0 -17.3 5 14.1 S 15 19 8 10 1015.8 1013.9 0.0
20/07:00pm 25.1 18.8 -15.9 5 14.4 S 15 24 8 13 1015.3 1013.5 0.0
20/06:30pm 26.4 20.9 -15.0 5 15.0 S 11 17 6 9 1014.7 1012.9 0.0
20/06:00pm 27.3 21.2 -12.3 6 15.2 S 15 24 8 13 1014.3 1012.5 0.0
20/05:30pm 28.0 21.3 -10.0 7 15.3 S 19 24 10 13 1014.1 1012.3 0.0
20/05:00pm 28.5 23.1 -8.7 8 15.4 S 13 24 7 13 1013.8 1011.9 0.0
20/04:30pm 28.8 24.6 -3.5 12 14.7 SW 9 22 5 12 1013.8 1011.9 0.0
20/04:00pm 28.6 24.2 -2.6 13 14.4 S 11 26 6 14 1013.7 1011.8 0.0
20/03:30pm 29.0 23.6 -1.5 13 14.4 SSW 17 28 9 15 1013.7 1011.8 0.0
20/03:00pm 28.8 24.2 -0.7 14 14.1 SSW 13 24 7 13 1013.7 1011.8 0.0
20/02:30pm 29.1 24.3 0.4 15 14.0 SSW 15 30 8 16 1013.9 1012.0 0.0
20/02:00pm 29.0 24.4 1.4 17 13.7 SSW 15 30 8 16 1014.2 1012.4 0.0
20/01:30pm 27.8 24.5 2.5 19 12.7 SW 9 24 5 13 1014.6 1012.8 0.0
20/01:00pm 27.5 23.6 3.6 21 12.2 S 13 22 7 12 1014.9 1013.1 0.0
20/12:30pm 27.5 24.5 4.3 22 12.0 W 9 22 5 12 1015.3 1013.5 0.0
20/12:00pm 26.2 23.6 4.4 24 11.2 SSW 7 13 4 7 1015.8 1013.9 0.0
20/11:30am 25.7 21.7 4.7 26 10.8 SSW 15 24 8 13 1016.4 1014.6 0.0
20/11:00am 24.4 20.2 5.7 30 9.7 S 17 28 9 15 1016.8 1015.0 0.0
20/10:30am 24.5 20.0 5.9 30 9.7 SSE 19 26 10 14 1017.0 1015.2 0.0
20/10:00am 23.4 18.8 6.4 33 8.9 SSE 20 32 11 17 1017.3 1015.5 0.0
20/09:30am 23.0 18.7 6.8 35 8.5 S 19 32 10 17 1017.5 1015.7 0.0
20/09:00am 22.4 18.1 7.8 39 7.8 SSE 20 32 11 17 1017.5 1015.7 0.0
20/08:30am 21.5 17.0 8.5 43 7.0 S 22 32 12 17 1017.5 1015.7 0.0
20/08:00am 21.1 16.9 8.4 44 6.8 S 20 30 11 16 1017.3 1015.5 0.0
20/07:30am 20.6 16.6 8.2 45 6.6 S 19 26 10 14 1017.0 1015.2 0.0
20/07:00am 20.0 16.1 7.1 43 6.7 S 17 26 9 14 1016.4 1014.6 0.0
20/06:30am 19.1 15.4 4.4 38 7.2 S 13 19 7 10 1016.1 1014.3 0.0
20/06:00am 17.3 14.0 2.5 37 6.9 SSW 9 17 5 9 1015.7 1013.8 0.0
20/05:30am 18.0 14.6 2.0 34 7.4 S 9 15 5 8 1015.1 1013.3 0.0
20/05:00am 18.6 15.5 1.4 31 7.9 SSE 7 11 4 6 1014.6 1012.8 0.0
20/04:30am 18.6 15.6 1.8 32 7.8 SSE 7 9 4 5 1014.3 1012.5 0.0
20/04:00am 19.1 16.1 1.7 31 8.1 S 7 9 4 5 1014.0 1012.1 0.0
20/03:30am 19.4 16.4 1.9 31 8.2 S 7 11 4 6 1013.7 1011.8 0.0
20/03:00am 20.0 16.7 2.2 30 8.4 SSW 9 11 5 6 1013.8 1011.9 0.0
20/02:30am 20.8 17.8 2.3 29 8.8 SSW 7 11 4 6 1013.7 1011.8 0.0
20/02:00am 21.4 18.2 3.1 30 8.9 WSW 9 13 5 7 1013.6 1011.7 0.0
20/01:30am 22.2 19.0 2.9 28 9.4 W 9 11 5 6 1013.6 1011.7 0.0
20/01:00am 22.7 19.8 2.8 27 9.7 W 7 9 4 5 1013.7 1011.8 0.0
20/12:30am 23.2 20.3 2.7 26 10.0 W 7 11 4 6 1014.0 1012.1 0.0
20/12:00am 23.5 20.5 2.3 25 10.3 W 7 9 4 5 1014.2 1012.4 0.0
 
Date/Time
WST
Temp
°C
App
Temp
°C
Dew
Point
°C
Rel
Hum
%
Delta-T
°C
Wind Press
QNH
hPa
Press
MSL
hPa
Rain since
9am
mm
Dir  Spd
km/h
Gust
km/h
Spd
kts
Gust
kts
19/11:30pm 24.3 20.9 1.8 23 10.9 WNW 9 11 5 6 1014.1 1012.3 0.0
19/11:00pm 24.8 21.2 0.6 20 11.5 WNW 9 13 5 7 1014.1 1012.3 0.0
19/10:30pm 25.1 21.2 -1.6 17 12.2 W 9 15 5 8 1013.8 1011.9 0.0
19/10:00pm 26.0 22.0 -2.0 15 12.8 W 9 15 5 8 1013.8 1011.9 0.0
19/09:30pm 27.2 22.8 -2.6 14 13.6 W 11 17 6 9 1013.7 1011.8 0.0
19/09:00pm 28.2 22.2 -2.7 13 14.2 WNW 19 26 10 14 1013.5 1011.6 0.0
19/08:30pm 28.7 22.4 -3.8 12 14.7 WNW 20 30 11 16 1013.1 1011.3 0.0
19/08:00pm 29.0 22.6 -4.5 11 15.0 WNW 20 28 11 15 1012.8 1011.0 0.0
19/07:30pm 29.6 22.5 -4.8 10 15.4 WNW 24 33 13 18 1012.5 1010.7 0.0
19/07:00pm 29.9 23.1 -5.5 9 15.7 WNW 22 30 12 16 1012.1 1010.3 0.0
19/06:30pm 30.5 23.3 -5.2 9 16.0 WNW 24 35 13 19 1011.7 1009.8 0.0
19/06:00pm 31.2 23.6 -5.2 9 16.4 WNW 26 35 14 19 1011.4 1009.5 0.0
19/05:30pm 32.0 24.5 -4.2 9 16.7 WNW 26 37 14 20 1011.1 1009.2 0.0
19/05:00pm 32.5 24.0 -3.2 10 16.8 WNW 32 44 17 24 1010.7 1008.9 0.0
19/04:30pm 33.0 24.8 -3.7 9 17.2 WNW 30 46 16 25 1010.5 1008.7 0.0
19/04:07pm 33.2 25.5 -3.1 9 17.2 WNW 28 46 15 25 1010.6 1008.8 0.0
19/04:00pm 33.5 24.9 -4.3 8 17.6 WNW 32 46 17 25 1010.6 1008.8 0.0
19/03:34pm 33.8 26.0 -3.9 9 17.7 WNW 28 46 15 25 1010.6 1008.8 0.0
19/03:30pm 33.6 25.0 -4.0 9 17.6 WNW 32 46 17 25 1010.5 1008.7 0.0
19/03:00pm 33.8 25.2 -4.4 8 17.8 WNW 32 46 17 25 1010.6 1008.8 0.0
19/02:32pm 34.2 25.5 -3.1 9 17.8 NW 33 83 18 45 1010.6 1008.8 0.0
19/02:31pm 34.2 25.7 -3.1 9 17.8 NW 32 57 17 31 1010.7 1008.9 0.0
19/02:30pm 34.5 26.0 -3.2 9 18.0 NW 32 50 17 27 1010.9 1009.0 0.0
19/02:01pm 33.9 26.4 -1.5 10 17.3 WNW 28 50 15 27 1011.2 1009.3 0.0
19/02:00pm 33.6 26.5 -1.4 10 17.1 WNW 26 50 14 27 1011.3 1009.4 0.0
19/01:35pm 32.9 24.9 -2.0 10 16.8 WNW 30 59 16 32 1011.6 1009.7 0.0
19/01:30pm 32.9 25.9 -0.6 11 16.5 WNW 26 46 14 25 1011.7 1009.8 0.0
19/01:14pm 33.0 25.1 -1.7 11 16.8 WNW 30 48 16 26 1012.0 1010.2 0.0
19/01:00pm 33.1 24.8 -1.4 11 16.8 NW 32 43 17 23 1012.2 1010.4 0.0
19/12:30pm 32.4 26.9 1.9 14 15.6 NW 20 39 11 21 1012.8 1011.0 0.0
19/12:19pm 32.2 25.6 1.8 14 15.5 WNW 26 52 14 28 1013.0 1011.2 0.0
19/12:00pm 31.7 24.7 2.2 15 15.1 NW 28 39 15 21 1013.5 1011.6 0.0
19/11:30am 30.8 25.0 2.4 16 14.5 WNW 22 32 12 17 1014.0 1012.1 0.0
19/11:00am 30.5 25.9 3.6 18 14.0 WNW 17 28 9 15 1014.5 1012.7 0.0
19/10:30am 29.2 25.2 6.8 24 12.2 WNW 17 28 9 15 1014.9 1013.1 0.0
19/10:00am 27.8 25.1 8.8 30 10.6 NW 13 19 7 10 1015.1 1013.3 0.0

Other formats

Comma delimited format used in spreadsheet applications
http://www.bom.gov.au/fwo/IDW60801/IDW60801.99737.axf

JavaScript Object Notation format (JSON) in row-major order
http://www.bom.gov.au/fwo/IDW60801/IDW60801.99737.json

Data quality

Most of these data are generated automatically and are frequently updated. Quality checks on data are not normally performed. It is possible for incorrect values to appear. Refer to information at About Latest Weather Observations and please check the disclaimer before using these data.